Meteo Giornale » Osservazioni meteo Svezia » Uppsala

ore: 21:20 - Osservazioni Meteo Uppsala
Lat. 59° 53' N Lon. 17° 36' E Alt. 21 metri s.l.m.

sereno

14 °C

Sereno

Temp. 24 Ore

0 °C

18 °C

Sud

9.3 Km/h

Dew point 12 °C

Umidità 87 %

Visibilità  10 Km

Il sole sorge alle ore 05:42

Il sole tramonta alle ore 19:57

Data e Ora Cielo e Fenomeni T °C DP °C Um. % Pres. hPa Vis. km Vento km/h
Oggi h: 21:20 sereno Sereno 14 12 87 1006 10 S 9.3
Oggi h: 20:50 sereno Sereno 15 12 82 1006 10 S/SO 9.3
Oggi h: 20:20 poco_nuvoloso Poco Nuvoloso 15 12 82 1006 10 SO 7.4
Oggi h: 19:50 coperto Coperto 17 12 72 1006 10 S/SO 13
Oggi h: 19:20 coperto Coperto 17 12 72 1006 10 SO 13
Oggi h: 18:50 coperto Coperto 17 12 72 1006 10 S/SO 14.8
Oggi h: 18:20 molto_nuvoloso Molto Nuvoloso 18 13 72 1006 10 S/SO 14.8
Oggi h: 17:50 sereno Sereno 18 13 72 1006 10 SO 14.8
Oggi h: 17:20 sereno Sereno 18 13 72 1005 10 SO 20.3
Oggi h: 16:50 coperto Coperto 18 13 72 1005 10 SO 20.3
Oggi h: 16:20 coperto Coperto 18 13 72 1005 10 S/SO 20.3
Oggi h: 15:50 coperto Coperto 18 13 72 1005 10 SO 24
Oggi h: 15:20 sereno Sereno 18 14 77 1005 10 SO 22.2
Oggi h: 14:50 sereno Sereno 0 0 63 0 10 N 0
Oggi h: 14:20 sereno Sereno 0 0 59 0 0 N 0
Oggi h: 13:50 sereno Sereno 0 0 63 0 0 N 0
Oggi h: 13:20 sereno Sereno 0 0 63 0 0 N 0
Oggi h: 12:50 sereno Sereno 0 0 59 0 0 N 0
Oggi h: 12:20 sereno Sereno 0 0 67 0 10 N 0
Oggi h: 11:50 sereno Sereno 0 0 67 0 10 N 0
Oggi h: 11:20 sereno Sereno 0 0 63 0 10 N 0
Oggi h: 10:50 molto_nuvoloso Molto Nuvoloso 18 15 82 1004 10 O 16.7
Oggi h: 10:20 coperto Coperto 17 16 93 1004 10 O 14.8
Oggi h: 09:50 coperto_pioggia Pioviggine 16 16 100 1004 10 O/SO 11.1
Oggi h: 09:20 coperto_pioggia Pioviggine 16 15 93 1003 10 O/SO 13
Oggi h: 08:50 coperto Coperto 16 16 100 1003 10 O/SO 11.1
Oggi h: 08:20 coperto Coperto 16 16 100 1003 10 O/SO 11.1
Oggi h: 07:50 molto_nuvoloso Molto Nuvoloso 16 15 93 1003 10 O 9.3
Oggi h: 07:20 coperto Coperto 16 15 93 1003 10 O/NO 7.4
Oggi h: 06:50 molto_nuvoloso Molto Nuvoloso 16 15 93 1002 10 O/NO 9.3
Oggi h: 06:20 coperto_pioggia Pioggia 16 15 93 1002 10 O/NO 9.3
Oggi h: 05:50 coperto_pioggia Pioggia 16 15 93 1002 10 N 5.5
Oggi h: 05:20 coperto_pioggia Pioggia Foschia 15 15 100 1002 2 NO 7.4
Oggi h: 04:50 coperto_pioggia Pioggia Foschia 15 15 100 1002 3 N 3.7
Oggi h: 04:20 coperto Coperto 16 15 93 1002 5 N 3.7
Oggi h: 03:50 coperto_pioggia Pioggia 16 15 93 1002 5 N 3.7
Oggi h: 03:20 coperto_pioggia Pioviggine Foschia 15 15 100 1002 4 N 3.7
Oggi h: 02:50 coperto_pioggia Pioggia Foschia 15 15 100 1002 4 N 3.7
Oggi h: 02:20 foschia Foschia 15 15 100 1002 4 N 3.7
Oggi h: 01:50 foschia Foschia 15 15 100 1002 5 N 3.7
Oggi h: 01:20 molto_nuvoloso Molto Nuvoloso 16 15 93 1002 7 N 1.8
Oggi h: 00:50 molto_nuvoloso Molto Nuvoloso 16 15 93 1002 8 N 1.8
Oggi h: 00:20 coperto Coperto 16 15 93 1002 8 N 5.5
Ieri h: 23:50 coperto Coperto 15 15 100 1002 8 E 7.4
Ieri h: 23:20 coperto Coperto 16 15 93 1002 10 N 5.5
Ieri h: 22:50 molto_nuvoloso Molto Nuvoloso 16 15 93 1003 10 E 7.4
Ieri h: 22:20 coperto Coperto 16 15 93 1003 10 N 5.5
Ieri h: 21:50 molto_nuvoloso Molto Nuvoloso 16 15 93 1003 10 N 5.5